createdAt,value
2018-08-27T00:00:51.891Z,94802.86
2018-08-27T00:03:20.621Z,94801.28
2018-08-27T00:05:49.295Z,94792.39
2018-08-27T00:08:17.997Z,94792.55
2018-08-27T00:10:46.665Z,94784.34
2018-08-27T00:13:15.352Z,94776.33
2018-08-27T00:15:44.030Z,94774.59
2018-08-27T00:18:12.717Z,94772.02
2018-08-27T00:20:41.372Z,94775.96
2018-08-27T00:23:10.099Z,94771.42
2018-08-27T00:25:38.850Z,94776.06
2018-08-27T00:28:07.555Z,94776.83
2018-08-27T00:30:36.259Z,94773.66
2018-08-27T00:33:05.023Z,94776.83
2018-08-27T00:35:33.734Z,94776.27
2018-08-27T00:38:02.360Z,94781.38
2018-08-27T00:40:31.021Z,94778.48
2018-08-27T00:42:59.735Z,94776.11
2018-08-27T00:45:28.468Z,94777.52
2018-08-27T00:47:57.280Z,94770.37
2018-08-27T00:50:26.040Z,94778.66
2018-08-27T00:52:54.748Z,94778.50
2018-08-27T00:55:24.808Z,94782.05
2018-08-27T00:57:53.560Z,94776.83
2018-08-27T01:00:22.292Z,94775.31
2018-08-27T01:02:50.987Z,94774.98
2018-08-27T01:05:19.794Z,94775.56
2018-08-27T01:07:48.538Z,94772.63
2018-08-27T01:10:17.310Z,94765.56
2018-08-27T01:12:46.071Z,94765.50
2018-08-27T01:15:14.812Z,94762.35
2018-08-27T01:17:43.770Z,94754.14
2018-08-27T01:20:12.525Z,94759.81
2018-08-27T01:22:41.308Z,94763.92
2018-08-27T01:25:09.966Z,94763.92
2018-08-27T01:27:38.699Z,94764.72
2018-08-27T01:30:07.678Z,94757.50
2018-08-27T01:32:36.398Z,94763.98
2018-08-27T01:35:05.102Z,94757.46
2018-08-27T01:37:33.872Z,94758.81
2018-08-27T01:40:02.603Z,94759.40
2018-08-27T01:42:31.404Z,94758.03
2018-08-27T01:45:00.054Z,94760.40
2018-08-27T01:47:28.718Z,94760.83
2018-08-27T01:49:57.449Z,94759.31
2018-08-27T01:52:26.171Z,94759.92
2018-08-27T01:54:54.956Z,94768.36
2018-08-27T01:57:23.633Z,94770.16
2018-08-27T01:59:52.333Z,94765.30
2018-08-27T02:02:21.109Z,94768.62
2018-08-27T02:04:49.734Z,94769.61
2018-08-27T02:07:18.367Z,94762.98
2018-08-27T02:09:47.083Z,94764.35
2018-08-27T02:12:15.757Z,94759.46
2018-08-27T02:14:44.448Z,94758.47
2018-08-27T02:17:13.173Z,94764.30
2018-08-27T02:19:41.872Z,94767.99
2018-08-27T02:22:10.623Z,94764.63
2018-08-27T02:24:39.308Z,94766.00
2018-08-27T02:27:08.074Z,94766.20
2018-08-27T02:29:36.741Z,94763.99
2018-08-27T02:32:05.396Z,94764.78
2018-08-27T02:34:34.060Z,94758.56
2018-08-27T02:37:02.702Z,94764.58
2018-08-27T02:39:31.401Z,94766.00
2018-08-27T02:42:00.090Z,94762.51
2018-08-27T02:44:28.774Z,94769.94
2018-08-27T02:46:57.455Z,94768.73
2018-08-27T02:49:26.190Z,94763.03
2018-08-27T02:51:54.866Z,94757.56
2018-08-27T02:54:23.532Z,94764.83
2018-08-27T02:56:52.278Z,94767.63
2018-08-27T02:59:20.895Z,94771.56
2018-08-27T03:01:49.578Z,94774.14
2018-08-27T03:04:18.273Z,94780.08
2018-08-27T03:06:46.952Z,94783.45
2018-08-27T03:09:15.597Z,94777.89
2018-08-27T03:11:44.303Z,94772.45
2018-08-27T03:14:13.029Z,94774.81
2018-08-27T03:16:41.751Z,94782.19
2018-08-27T03:19:10.491Z,94783.42
2018-08-27T03:21:39.178Z,94787.34
2018-08-27T03:24:07.914Z,94782.66
2018-08-27T03:26:36.567Z,94787.78
2018-08-27T03:29:05.223Z,94790.13
2018-08-27T03:31:33.910Z,94791.72
2018-08-27T03:34:03.020Z,94794.25
2018-08-27T03:36:31.690Z,94795.01
2018-08-27T03:39:00.382Z,94794.61
2018-08-27T03:41:29.082Z,94805.13
2018-08-27T03:43:57.754Z,94816.84
2018-08-27T03:46:26.406Z,94817.66
2018-08-27T03:48:55.051Z,94824.13
2018-08-27T03:51:23.756Z,94825.10
2018-08-27T03:53:52.518Z,94830.75
2018-08-27T03:56:21.184Z,94828.17
2018-08-27T03:58:49.880Z,94838.16
2018-08-27T04:01:18.558Z,94830.11
2018-08-27T04:03:47.183Z,94841.83
2018-08-27T04:06:15.885Z,94835.17
2018-08-27T04:08:44.580Z,94841.05
2018-08-27T04:11:13.329Z,94843.84
2018-08-27T04:13:42.013Z,94846.17
2018-08-27T04:16:10.675Z,94852.22
2018-08-27T04:18:39.327Z,94846.94
2018-08-27T04:21:07.980Z,94845.55
2018-08-27T04:23:36.654Z,94851.81
2018-08-27T04:26:05.428Z,94853.55
2018-08-27T04:28:34.151Z,94847.27
2018-08-27T04:31:02.835Z,94852.89
2018-08-27T04:33:31.575Z,94856.59
2018-08-27T04:36:00.262Z,94849.73
2018-08-27T04:38:28.952Z,94852.84
2018-08-27T04:40:57.646Z,94855.89
2018-08-27T04:43:26.422Z,94860.23
2018-08-27T04:45:55.130Z,94856.47
2018-08-27T04:48:23.830Z,94861.77
2018-08-27T04:50:52.519Z,94856.81
2018-08-27T04:53:21.277Z,94858.92
2018-08-27T04:55:49.942Z,94857.14
2018-08-27T04:58:18.714Z,94861.86
2018-08-27T05:00:47.457Z,94871.36
2018-08-27T05:03:16.115Z,94871.91
2018-08-27T05:05:44.762Z,94878.70
2018-08-27T05:08:13.494Z,94878.08
2018-08-27T05:10:42.155Z,94874.55
2018-08-27T05:13:10.842Z,94880.81
2018-08-27T05:15:39.451Z,94878.00
2018-08-27T05:18:08.134Z,94873.31
2018-08-27T05:20:36.821Z,94874.72
2018-08-27T05:23:05.521Z,94875.67
2018-08-27T05:25:34.154Z,94882.69
2018-08-27T05:28:02.840Z,94874.27
2018-08-27T05:30:31.513Z,94876.80
2018-08-27T05:33:00.278Z,94879.33
2018-08-27T05:35:28.974Z,94887.58
2018-08-27T05:37:57.710Z,94882.85
2018-08-27T05:40:26.409Z,94877.38
2018-08-27T05:42:55.066Z,94880.86
2018-08-27T05:45:23.811Z,94878.28
2018-08-27T05:47:52.532Z,94877.74
2018-08-27T05:50:21.240Z,94872.01
2018-08-27T05:52:49.926Z,94869.65
2018-08-27T05:55:18.606Z,94877.65
2018-08-27T05:57:47.255Z,94879.50
2018-08-27T06:00:15.970Z,94879.65
2018-08-27T06:02:44.644Z,94878.69
2018-08-27T06:05:13.312Z,94883.42
2018-08-27T06:07:41.942Z,94890.48
2018-08-27T06:10:10.643Z,94897.44
2018-08-27T06:12:39.319Z,94899.31
2018-08-27T06:15:09.249Z,94898.17
2018-08-27T06:17:38.042Z,94902.62
2018-08-27T06:20:07.174Z,94907.13
2018-08-27T06:22:35.852Z,94905.47
2018-08-27T06:25:04.710Z,94910.47
2018-08-27T06:27:33.355Z,94912.02
2018-08-27T06:30:05.422Z,94913.25
2018-08-27T06:32:34.124Z,94910.99
2018-08-27T06:35:02.921Z,94903.88
2018-08-27T06:37:31.570Z,94913.22
2018-08-27T06:40:00.247Z,94909.80
2018-08-27T06:42:28.994Z,94912.34
2018-08-27T06:44:57.795Z,94913.88
2018-08-27T06:47:26.463Z,94916.91
2018-08-27T06:49:55.227Z,94914.69
2018-08-27T06:52:23.883Z,94925.70
2018-08-27T06:54:52.538Z,94921.62
2018-08-27T06:57:21.215Z,94928.03
2018-08-27T06:59:49.954Z,94926.30
2018-08-27T07:02:18.753Z,94940.63
2018-08-27T07:04:47.470Z,94934.77
2018-08-27T07:07:16.195Z,94934.68
2018-08-27T07:09:44.850Z,94941.02
2018-08-27T07:12:13.535Z,94941.98
2018-08-27T07:14:42.242Z,94946.98
2018-08-27T07:17:10.976Z,94945.22
2018-08-27T07:19:39.677Z,94951.12
2018-08-27T07:22:08.383Z,94956.34
2018-08-27T07:24:37.094Z,94959.42
2018-08-27T07:27:06.073Z,94954.94
2018-08-27T07:29:34.859Z,94957.00
2018-08-27T07:32:04.499Z,94954.76
2018-08-27T07:34:33.143Z,94960.28
2018-08-27T07:37:01.878Z,94961.89
2018-08-27T07:39:30.609Z,94967.28
2018-08-27T07:41:59.626Z,94965.08
2018-08-27T07:44:28.255Z,94970.22
2018-08-27T07:46:57.076Z,94966.28
2018-08-27T07:49:25.839Z,94972.25
2018-08-27T07:51:54.852Z,94971.67
2018-08-27T07:54:23.583Z,94971.59
2018-08-27T07:56:52.259Z,94975.17
2018-08-27T07:59:20.996Z,94971.29
2018-08-27T08:01:49.671Z,94970.66
2018-08-27T08:04:18.334Z,94973.98
2018-08-27T08:06:47.028Z,94969.80
2018-08-27T08:09:15.732Z,94971.91
2018-08-27T08:11:44.456Z,94981.39
2018-08-27T08:14:13.140Z,94975.50
2018-08-27T08:16:41.794Z,94972.41
2018-08-27T08:19:10.466Z,94980.58
2018-08-27T08:21:39.206Z,94971.65
2018-08-27T08:24:07.979Z,94985.55
2018-08-27T08:26:36.679Z,94981.48
2018-08-27T08:29:05.448Z,94987.63
2018-08-27T08:31:35.187Z,94978.69
2018-08-27T08:34:03.881Z,94972.96
2018-08-27T08:36:32.654Z,94980.75
2018-08-27T08:39:01.445Z,94983.19
2018-08-27T08:41:30.109Z,94979.61
2018-08-27T08:43:58.805Z,94970.30
2018-08-27T08:46:27.497Z,94978.09
2018-08-27T08:48:56.157Z,94972.59
2018-08-27T08:51:24.847Z,94968.45
2018-08-27T08:53:53.536Z,94974.89
2018-08-27T08:56:22.201Z,94980.39
2018-08-27T08:58:50.875Z,94979.02
2018-08-27T09:01:19.645Z,94986.92
2018-08-27T09:03:48.299Z,94983.27
2018-08-27T09:06:17.113Z,94990.15
2018-08-27T09:08:45.881Z,94991.30
2018-08-27T09:11:14.560Z,94986.48
2018-08-27T09:13:43.245Z,94988.06
2018-08-27T09:16:12.045Z,94986.80
2018-08-27T09:18:40.740Z,94985.36
2018-08-27T09:21:09.430Z,94993.30
2018-08-27T09:23:38.214Z,94995.09
2018-08-27T09:26:06.911Z,94995.97
2018-08-27T09:28:35.655Z,95003.30
2018-08-27T09:31:04.384Z,95000.13
2018-08-27T09:33:33.093Z,94995.98
2018-08-27T09:36:01.803Z,94996.89
2018-08-27T09:38:30.662Z,94991.63
2018-08-27T09:40:59.424Z,94993.36
2018-08-27T09:43:28.148Z,94992.69
2018-08-27T09:45:56.878Z,94993.77
2018-08-27T09:48:25.560Z,94992.01
2018-08-27T09:50:54.339Z,95003.19
2018-08-27T09:53:23.181Z,94999.07
2018-08-27T09:55:51.967Z,94999.30
2018-08-27T09:58:20.699Z,95000.78
2018-08-27T10:00:54.583Z,94997.14
2018-08-27T10:03:23.325Z,94996.91
2018-08-27T10:05:52.094Z,94998.28
2018-08-27T10:08:20.875Z,95009.77
2018-08-27T10:10:49.652Z,95007.89
2018-08-27T10:13:18.386Z,95006.58
2018-08-27T10:15:47.393Z,95007.40
2018-08-27T10:18:16.062Z,95004.62
2018-08-27T10:20:44.821Z,95000.41
2018-08-27T10:23:13.578Z,95000.22
2018-08-27T10:25:42.228Z,94995.14
2018-08-27T10:28:10.923Z,94999.40
2018-08-27T10:30:39.646Z,95001.55
2018-08-27T10:33:08.328Z,94994.61
2018-08-27T10:35:37.341Z,95001.00
2018-08-27T10:38:06.947Z,95000.91
2018-08-27T10:40:35.690Z,95013.91
2018-08-27T10:43:04.569Z,95016.45
2018-08-27T10:45:37.392Z,95011.30
2018-08-27T10:48:06.924Z,95019.80
2018-08-27T10:50:35.791Z,95026.59
2018-08-27T10:53:11.221Z,95026.45
2018-08-27T10:55:39.942Z,95025.45
2018-08-27T10:58:09.492Z,95032.66
2018-08-27T11:00:43.613Z,95031.34
2018-08-27T11:03:13.366Z,95032.77
2018-08-27T11:05:42.097Z,95023.28
2018-08-27T11:08:10.851Z,95029.41
2018-08-27T11:10:51.952Z,95025.38
2018-08-27T11:13:20.902Z,95035.83
2018-08-27T11:15:49.582Z,95047.78
2018-08-27T11:18:18.315Z,95051.19
2018-08-27T11:20:47.003Z,95039.52
2018-08-27T11:23:15.729Z,95050.68
2018-08-27T11:25:44.449Z,95049.72
2018-08-27T11:28:13.263Z,95042.70
2018-08-27T11:30:41.962Z,95044.41
2018-08-27T11:33:10.644Z,95041.46
2018-08-27T11:35:39.299Z,95041.06
2018-08-27T11:38:07.983Z,95033.25
2018-08-27T11:40:36.696Z,95022.30
2018-08-27T11:43:05.399Z,95023.45
2018-08-27T11:45:34.133Z,95013.98
2018-08-27T11:48:03.069Z,95025.34
2018-08-27T11:50:31.841Z,95026.59
2018-08-27T11:53:00.639Z,95031.87
2018-08-27T11:55:29.373Z,95039.73
2018-08-27T11:57:58.034Z,95046.59
2018-08-27T12:00:32.008Z,95045.03
2018-08-27T12:03:04.766Z,95043.45
2018-08-27T12:05:33.507Z,95030.33
2018-08-27T12:08:02.262Z,95042.84
2018-08-27T12:10:30.947Z,95030.17
2018-08-27T12:13:01.773Z,95043.08
2018-08-27T12:15:30.628Z,95043.06
2018-08-27T12:17:59.398Z,95051.88
2018-08-27T12:20:28.179Z,95058.11
2018-08-27T12:22:57.190Z,95053.83
2018-08-27T12:25:25.954Z,95055.96
2018-08-27T12:27:57.706Z,95054.39
2018-08-27T12:30:26.470Z,95052.02
2018-08-27T12:32:55.222Z,95046.95
2018-08-27T12:35:23.972Z,95046.39
2018-08-27T12:37:52.725Z,95039.55
2018-08-27T12:40:21.491Z,95046.55
2018-08-27T12:42:50.149Z,95042.45
2018-08-27T12:45:18.849Z,95045.99
2018-08-27T12:47:47.677Z,95045.97
2018-08-27T12:50:16.395Z,95007.70
2018-08-27T12:52:45.144Z,95053.00
2018-08-27T12:55:13.852Z,95045.95
2018-08-27T12:57:42.620Z,95041.45
2018-08-27T13:00:17.625Z,95045.18
2018-08-27T13:02:48.294Z,95047.74
2018-08-27T13:05:17.034Z,95032.52
2018-08-27T13:07:45.885Z,95039.73
2018-08-27T13:10:14.580Z,95040.33
2018-08-27T13:12:44.078Z,95035.82
2018-08-27T13:15:12.861Z,95039.94
2018-08-27T13:17:41.610Z,95044.03
2018-08-27T13:20:10.355Z,95050.67
2018-08-27T13:22:39.004Z,95041.08
2018-08-27T13:25:07.911Z,95042.61
2018-08-27T13:27:36.684Z,95042.20
2018-08-27T13:30:06.947Z,95043.92
2018-08-27T13:32:35.714Z,95039.03
2018-08-27T13:35:05.427Z,95046.43
2018-08-27T13:37:34.172Z,95045.81
2018-08-27T13:40:03.371Z,95051.88
2018-08-27T13:42:32.039Z,95054.99
2018-08-27T13:45:00.755Z,95053.05
2018-08-27T13:47:29.469Z,94914.97
2018-08-27T13:49:58.257Z,95058.48
2018-08-27T13:52:27.066Z,95049.69
2018-08-27T13:54:56.071Z,95055.58
2018-08-27T13:57:26.140Z,95046.98
2018-08-27T13:59:55.155Z,95050.92
2018-08-27T14:02:23.879Z,95056.77
2018-08-27T14:04:52.572Z,95053.80
2018-08-27T14:07:21.400Z,95051.27
2018-08-27T14:09:50.138Z,95055.58
2018-08-27T14:12:18.866Z,95055.63
2018-08-27T14:14:47.693Z,95056.83
2018-08-27T14:17:16.418Z,95060.94
2018-08-27T14:19:45.652Z,95069.53
2018-08-27T14:22:14.291Z,95065.42
2018-08-27T14:24:43.074Z,95071.63
2018-08-27T14:27:11.951Z,95076.09
2018-08-27T14:29:40.762Z,95074.13
2018-08-27T14:32:09.514Z,95078.83
2018-08-27T14:34:38.215Z,95085.09
2018-08-27T14:37:07.001Z,95086.11
2018-08-27T14:39:35.725Z,95087.07
2018-08-27T14:42:04.547Z,95082.52
2018-08-27T14:44:33.272Z,95077.66
2018-08-27T14:47:02.002Z,95080.60
2018-08-27T14:49:30.706Z,95085.84
2018-08-27T14:51:59.377Z,95078.20
2018-08-27T14:54:28.051Z,95071.53
2018-08-27T14:56:56.850Z,95068.00
2018-08-27T14:59:25.597Z,95067.17
2018-08-27T15:01:54.328Z,95068.70
2018-08-27T15:04:23.140Z,95064.55
2018-08-27T15:06:51.945Z,95057.39
2018-08-27T15:09:21.694Z,95055.40
2018-08-27T15:11:50.552Z,94680.95
2018-08-27T15:14:19.338Z,95064.20
2018-08-27T15:16:48.697Z,95060.35
2018-08-27T15:19:17.433Z,95067.90
2018-08-27T15:21:46.175Z,95070.48
2018-08-27T15:24:15.296Z,95069.56
2018-08-27T15:26:44.038Z,95075.98
2018-08-27T15:29:12.914Z,95071.53
2018-08-27T15:31:41.686Z,95074.42
2018-08-27T15:34:10.338Z,95082.80
2018-08-27T15:36:39.096Z,95081.44
2018-08-27T15:39:09.481Z,95078.75
2018-08-27T15:41:38.263Z,95073.50
2018-08-27T15:44:07.190Z,95064.09
2018-08-27T15:46:41.134Z,95064.26
2018-08-27T15:49:10.095Z,95068.52
2018-08-27T15:51:39.361Z,95067.34
2018-08-27T15:54:09.282Z,95070.15
2018-08-27T15:56:38.073Z,95075.06
2018-08-27T15:59:06.833Z,95068.93
2018-08-27T16:01:35.589Z,95071.24
2018-08-27T16:04:04.369Z,95074.57
2018-08-27T16:06:33.976Z,95070.58
2018-08-27T16:09:02.793Z,95073.70
2018-08-27T16:11:31.484Z,95066.94
2018-08-27T16:14:00.198Z,95066.34
2018-08-27T16:16:29.037Z,95072.41
2018-08-27T16:18:57.739Z,95072.20
2018-08-27T16:21:26.673Z,95075.67
2018-08-27T16:23:55.434Z,95082.20
2018-08-27T16:26:24.180Z,95084.42
2018-08-27T16:28:52.996Z,95088.82
2018-08-27T16:31:21.796Z,95087.34
2018-08-27T16:33:50.533Z,95092.46
2018-08-27T16:36:19.331Z,95107.37
2018-08-27T16:38:48.130Z,95112.47
2018-08-27T16:41:16.829Z,95107.83
2018-08-27T16:43:45.514Z,95107.99
2018-08-27T16:46:14.212Z,95109.37
2018-08-27T16:48:42.879Z,95120.53
2018-08-27T16:51:11.538Z,95124.61
2018-08-27T16:53:40.262Z,95127.93
2018-08-27T16:56:08.927Z,95122.48
2018-08-27T16:58:37.619Z,95126.18
2018-08-27T17:01:06.444Z,95140.51
2018-08-27T17:03:35.101Z,95132.88
2018-08-27T17:06:03.775Z,95144.25
2018-08-27T17:08:32.486Z,95146.37
2018-08-27T17:11:01.292Z,95142.12
2018-08-27T17:13:30.187Z,95150.61
2018-08-27T17:15:59.011Z,95155.16
2018-08-27T17:18:27.773Z,95164.53
2018-08-27T17:20:56.530Z,95160.44
2018-08-27T17:23:25.326Z,95159.30
2018-08-27T17:25:53.966Z,95163.02
2018-08-27T17:28:22.719Z,95165.55
2018-08-27T17:30:51.383Z,95168.51
2018-08-27T17:33:20.095Z,95162.82
2018-08-27T17:35:48.892Z,95162.27
2018-08-27T17:38:17.649Z,95171.05
2018-08-27T17:40:46.336Z,95171.46
2018-08-27T17:43:15.111Z,95163.04
2018-08-27T17:45:54.616Z,95159.34
2018-08-27T17:48:23.564Z,95161.30
2018-08-27T17:50:52.264Z,95161.87
2018-08-27T17:53:20.991Z,95164.63
2018-08-27T17:55:49.762Z,95164.42
2018-08-27T17:58:18.595Z,95162.08
2018-08-27T18:00:47.304Z,95164.23
2018-08-27T18:03:16.078Z,95169.11
2018-08-27T18:05:44.842Z,95175.95
2018-08-27T18:08:13.610Z,95183.19
2018-08-27T18:10:42.391Z,95173.98
2018-08-27T18:13:11.199Z,95175.91
2018-08-27T18:15:40.046Z,95175.73
2018-08-27T18:18:08.831Z,95175.33
2018-08-27T18:20:37.576Z,95179.44
2018-08-27T18:23:06.435Z,95190.16
2018-08-27T18:25:35.185Z,95196.21
2018-08-27T18:28:03.857Z,95192.66
2018-08-27T18:30:32.595Z,95192.08
2018-08-27T18:33:01.385Z,95191.28
2018-08-27T18:35:30.213Z,95197.34
2018-08-27T18:37:59.101Z,95204.52
2018-08-27T18:40:27.922Z,95206.44
2018-08-27T18:42:56.658Z,95205.70
2018-08-27T18:45:25.479Z,95200.39
2018-08-27T18:47:54.254Z,95203.31
2018-08-27T18:50:23.057Z,95205.23
2018-08-27T18:52:51.838Z,95207.57
2018-08-27T18:55:20.610Z,95196.61
2018-08-27T18:57:49.419Z,95199.50
2018-08-27T19:00:19.925Z,95198.70
2018-08-27T19:02:48.779Z,95203.98
2018-08-27T19:05:17.611Z,95203.98
2018-08-27T19:07:46.450Z,95204.96
2018-08-27T19:10:15.389Z,95212.15
2018-08-27T19:12:44.484Z,95219.91
2018-08-27T19:15:13.281Z,95224.01
2018-08-27T19:17:42.172Z,95228.86
2018-08-27T19:20:11.001Z,95220.59
2018-08-27T19:22:40.426Z,95227.38
2018-08-27T19:25:09.328Z,95229.93
2018-08-27T19:27:38.183Z,95233.58
2018-08-27T19:30:09.700Z,95233.00
2018-08-27T19:32:38.427Z,95236.52
2018-08-27T19:35:07.239Z,95240.17
2018-08-27T19:37:35.984Z,95238.20
2018-08-27T19:40:04.888Z,95071.70
2018-08-27T19:42:33.699Z,95240.08
2018-08-27T19:45:02.480Z,95235.77
2018-08-27T19:47:31.308Z,95229.13
2018-08-27T19:50:00.114Z,95231.86
2018-08-27T19:52:28.894Z,95231.27
2018-08-27T19:54:57.681Z,95237.87
2018-08-27T19:57:26.532Z,95244.52
2018-08-27T19:59:55.373Z,95241.73
2018-08-27T20:02:24.108Z,95244.98
2018-08-27T20:04:52.957Z,95250.25
2018-08-27T20:07:21.672Z,95239.88
2018-08-27T20:09:50.520Z,95245.58
2018-08-27T20:12:19.379Z,95247.31
2018-08-27T20:14:48.078Z,95247.27
2018-08-27T20:17:16.859Z,95243.05
2018-08-27T20:19:45.607Z,95273.34
2018-08-27T20:22:14.360Z,95278.95
2018-08-27T20:24:43.149Z,95280.14
2018-08-27T20:27:11.859Z,95286.56
2018-08-27T20:29:40.626Z,95284.98
2018-08-27T20:32:09.350Z,95284.58
2018-08-27T20:34:38.096Z,95292.14
2018-08-27T20:37:07.152Z,95299.81
2018-08-27T20:39:35.921Z,95296.85
2018-08-27T20:42:04.630Z,95288.41
2018-08-27T20:44:33.358Z,95297.09
2018-08-27T20:47:02.064Z,95307.34
2018-08-27T20:49:30.907Z,95304.86
2018-08-27T20:51:59.574Z,95321.45
2018-08-27T20:54:28.377Z,95327.09
2018-08-27T20:56:57.206Z,95335.24
2018-08-27T20:59:25.861Z,95337.42
2018-08-27T21:01:54.619Z,95337.23
2018-08-27T21:04:23.406Z,95333.14
2018-08-27T21:06:52.138Z,95332.11
2018-08-27T21:09:20.809Z,95325.95
2018-08-27T21:11:49.549Z,95335.52
2018-08-27T21:14:29.469Z,95325.16
2018-08-27T21:16:58.201Z,95317.94
2018-08-27T21:19:27.014Z,95314.99
2018-08-27T21:21:55.783Z,95310.39
2018-08-27T21:24:24.442Z,95323.77
2018-08-27T21:26:53.313Z,95316.58
2018-08-27T21:29:21.980Z,95324.18
2018-08-27T21:31:50.700Z,95320.66
2018-08-27T21:34:19.435Z,95323.80
2018-08-27T21:36:48.206Z,95325.16
2018-08-27T21:39:17.075Z,95317.72
2018-08-27T21:41:45.845Z,95328.21
2018-08-27T21:44:14.578Z,95323.08
2018-08-27T21:46:43.386Z,95327.33
2018-08-27T21:49:12.097Z,95337.12
2018-08-27T21:51:40.916Z,95337.80
2018-08-27T21:54:09.648Z,95323.96
2018-08-27T21:56:38.375Z,95323.39
2018-08-27T21:59:07.070Z,95325.57
2018-08-27T22:01:35.812Z,95334.59
2018-08-27T22:04:09.624Z,95340.20
2018-08-27T22:06:38.277Z,95325.22
2018-08-27T22:09:07.064Z,95329.63
2018-08-27T22:11:35.786Z,95322.34
2018-08-27T22:14:04.980Z,95334.14
2018-08-27T22:16:33.636Z,95335.73
2018-08-27T22:19:02.722Z,95332.94
2018-08-27T22:21:31.401Z,95333.32
2018-08-27T22:24:14.851Z,95329.45
2018-08-27T22:26:43.492Z,95323.16
2018-08-27T22:29:12.144Z,95320.16
2018-08-27T22:31:40.768Z,95325.12
2018-08-27T22:34:09.435Z,95311.52
2018-08-27T22:36:38.120Z,95312.33
2018-08-27T22:39:06.846Z,95315.84
2018-08-27T22:41:35.552Z,95314.95
2018-08-27T22:44:04.315Z,95319.67
2018-08-27T22:46:32.964Z,95316.50
2018-08-27T22:49:01.636Z,95319.36
2018-08-27T22:51:30.428Z,95310.05
2018-08-27T22:53:59.089Z,95316.23
2018-08-27T22:56:27.820Z,95324.02
2018-08-27T22:58:56.569Z,95318.22
2018-08-27T23:01:25.362Z,95316.00
2018-08-27T23:03:59.281Z,95318.48
2018-08-27T23:06:27.954Z,95329.66
2018-08-27T23:08:56.651Z,95318.38
2018-08-27T23:11:25.582Z,95311.64
2018-08-27T23:13:54.431Z,95306.80
2018-08-27T23:16:28.315Z,95304.83
2018-08-27T23:18:57.032Z,95316.36
2018-08-27T23:21:25.770Z,95313.67
2018-08-27T23:23:54.496Z,95325.64
2018-08-27T23:26:23.276Z,95322.72
2018-08-27T23:28:52.243Z,95323.03
2018-08-27T23:31:21.002Z,95323.77
2018-08-27T23:33:49.677Z,95320.25
2018-08-27T23:36:18.382Z,95317.28
2018-08-27T23:38:47.034Z,95318.31
2018-08-27T23:41:15.707Z,95313.98
2018-08-27T23:43:44.350Z,95322.52
2018-08-27T23:46:13.007Z,95321.36
2018-08-27T23:48:41.763Z,95321.36
2018-08-27T23:51:10.588Z,95318.85
2018-08-27T23:53:39.282Z,95320.84
2018-08-27T23:56:07.984Z,95327.17
2018-08-27T23:58:36.650Z,95322.45
